createdAt,value
2018-11-23T00:00:20.504Z,46.13
2018-11-23T00:02:49.496Z,44.77
2018-11-23T00:05:17.990Z,46.00
2018-11-23T00:10:39.652Z,46.47
2018-11-23T00:16:00.976Z,49.47
2018-11-23T00:18:29.287Z,47.53
2018-11-23T00:20:57.491Z,48.67
2018-11-23T00:23:26.426Z,49.03
2018-11-23T00:25:56.300Z,49.97
2018-11-23T00:28:25.457Z,47.40
2018-11-23T00:30:55.249Z,46.27
2018-11-23T00:33:25.777Z,49.50
2018-11-23T00:35:54.594Z,46.83
2018-11-23T00:38:23.892Z,48.87
2018-11-23T00:40:52.524Z,49.57
2018-11-23T00:43:27.511Z,49.60
2018-11-23T00:45:55.796Z,47.17
2018-11-23T00:48:25.919Z,49.90
2018-11-23T00:50:54.210Z,46.17
2018-11-23T00:53:23.034Z,45.83
2018-11-23T00:55:51.606Z,48.97
2018-11-23T00:58:20.204Z,50.10
2018-11-23T01:00:48.537Z,48.93
2018-11-23T01:03:17.730Z,48.30
2018-11-23T01:05:45.987Z,47.70
2018-11-23T01:08:16.589Z,48.00
2018-11-23T01:10:44.954Z,47.60
2018-11-23T01:13:14.401Z,46.27
2018-11-23T01:15:43.490Z,49.07
2018-11-23T01:18:12.207Z,47.33
2018-11-23T01:20:40.934Z,47.87
2018-11-23T01:23:09.706Z,47.37
2018-11-23T01:25:37.964Z,45.63
2018-11-23T01:28:06.381Z,48.60
2018-11-23T01:30:34.622Z,46.33
2018-11-23T01:33:02.818Z,47.33
2018-11-23T01:35:31.042Z,48.03
2018-11-23T01:37:59.298Z,51.60
2018-11-23T01:40:28.897Z,48.57
2018-11-23T01:42:57.766Z,46.43
2018-11-23T01:45:25.993Z,46.47
2018-11-23T01:47:54.323Z,48.67
2018-11-23T01:50:24.993Z,47.63
2018-11-23T01:52:53.840Z,46.83
2018-11-23T01:55:22.788Z,45.43
2018-11-23T01:57:51.221Z,46.93
2018-11-23T02:00:20.615Z,45.53
2018-11-23T02:02:49.636Z,47.10
2018-11-23T02:05:17.938Z,46.57
2018-11-23T02:07:46.351Z,48.67
2018-11-23T02:10:16.347Z,45.60
2018-11-23T02:12:45.648Z,48.60
2018-11-23T02:15:17.673Z,48.67
2018-11-23T02:17:47.711Z,47.57
2018-11-23T02:20:17.066Z,47.40
2018-11-23T02:22:45.385Z,47.57
2018-11-23T02:25:13.688Z,48.43
2018-11-23T02:27:41.893Z,48.70
2018-11-23T02:30:14.997Z,48.37
2018-11-23T02:32:43.461Z,49.27
2018-11-23T02:35:11.860Z,48.63
2018-11-23T02:37:40.370Z,46.67
2018-11-23T02:40:16.743Z,46.97
2018-11-23T02:42:45.097Z,48.17
2018-11-23T02:45:16.781Z,46.80
2018-11-23T02:47:46.813Z,48.50
2018-11-23T02:50:16.536Z,48.30
2018-11-23T02:52:45.659Z,47.87
2018-11-23T02:55:15.692Z,47.90
2018-11-23T02:57:44.795Z,48.80
2018-11-23T03:00:16.895Z,47.70
2018-11-23T03:02:45.867Z,46.70
2018-11-23T03:05:16.856Z,49.50
2018-11-23T03:07:45.173Z,47.03
2018-11-23T03:10:14.251Z,49.20
2018-11-23T03:12:43.153Z,49.33
2018-11-23T03:15:14.045Z,47.00
2018-11-23T03:17:42.877Z,48.73
2018-11-23T03:20:13.621Z,49.30
2018-11-23T03:22:41.851Z,49.43
2018-11-23T03:25:11.005Z,48.00
2018-11-23T03:27:39.323Z,46.83
2018-11-23T03:30:17.481Z,47.77
2018-11-23T03:32:46.863Z,46.03
2018-11-23T03:35:15.140Z,47.33
2018-11-23T03:37:45.480Z,47.20
2018-11-23T03:40:14.045Z,47.27
2018-11-23T03:42:42.369Z,44.67
2018-11-23T03:45:11.725Z,44.33
2018-11-23T03:47:40.429Z,45.07
2018-11-23T03:50:09.842Z,47.23
2018-11-23T03:52:38.066Z,45.43
2018-11-23T03:55:06.654Z,46.40
2018-11-23T03:57:35.951Z,46.37
2018-11-23T04:00:07.053Z,43.27
2018-11-23T04:02:35.759Z,46.27
2018-11-23T04:05:05.097Z,46.37
2018-11-23T04:07:34.874Z,44.80
2018-11-23T04:10:03.134Z,47.40
2018-11-23T04:12:32.371Z,47.33
2018-11-23T04:15:00.680Z,47.77
2018-11-23T04:17:29.645Z,46.30
2018-11-23T04:19:58.205Z,46.43
2018-11-23T04:22:26.532Z,47.40
2018-11-23T04:24:54.759Z,44.70
2018-11-23T04:27:23.073Z,47.70
2018-11-23T04:29:52.077Z,45.07
2018-11-23T04:32:20.574Z,46.20
2018-11-23T04:34:48.811Z,45.80
2018-11-23T04:37:17.094Z,48.13
2018-11-23T04:39:45.338Z,45.97
2018-11-23T04:42:13.596Z,45.50
2018-11-23T04:44:42.499Z,46.20
2018-11-23T04:47:11.487Z,46.63
2018-11-23T04:49:40.003Z,46.10
2018-11-23T04:52:08.995Z,46.23
2018-11-23T04:54:37.436Z,46.07
2018-11-23T04:57:05.806Z,45.90
2018-11-23T04:59:34.187Z,43.47
2018-11-23T05:02:02.429Z,46.13
2018-11-23T05:04:30.735Z,45.17
2018-11-23T05:06:58.954Z,45.97
2018-11-23T05:09:27.166Z,46.40
2018-11-23T05:11:55.423Z,45.57
2018-11-23T05:14:23.659Z,44.57
2018-11-23T05:16:51.891Z,47.83
2018-11-23T05:19:20.159Z,46.57
2018-11-23T05:21:48.369Z,44.80
2018-11-23T05:24:16.621Z,45.17
2018-11-23T05:26:45.142Z,46.47
2018-11-23T05:29:13.388Z,44.60
2018-11-23T05:31:41.607Z,44.17
2018-11-23T05:34:09.837Z,45.40
2018-11-23T05:36:38.346Z,43.13
2018-11-23T05:39:09.417Z,43.13
2018-11-23T05:41:38.262Z,46.10
2018-11-23T05:44:06.604Z,45.07
2018-11-23T05:46:36.096Z,44.73
2018-11-23T05:49:04.448Z,48.40
2018-11-23T05:51:33.050Z,45.77
2018-11-23T05:54:01.306Z,45.20
2018-11-23T05:56:30.735Z,45.83
2018-11-23T05:59:00.670Z,45.37
2018-11-23T06:01:29.023Z,44.93
2018-11-23T06:03:57.616Z,45.70
2018-11-23T06:06:27.029Z,45.47
2018-11-23T06:08:56.222Z,44.53
2018-11-23T06:11:25.163Z,44.70
2018-11-23T06:13:53.856Z,46.30
2018-11-23T06:16:22.380Z,47.30
2018-11-23T06:18:51.001Z,46.63
2018-11-23T06:21:19.451Z,43.90
2018-11-23T06:23:47.941Z,46.17
2018-11-23T06:26:22.686Z,45.50
2018-11-23T06:28:51.834Z,44.63
2018-11-23T06:31:21.032Z,48.87
2018-11-23T06:33:50.021Z,44.97
2018-11-23T06:36:18.891Z,45.40
2018-11-23T06:38:48.555Z,44.27
2018-11-23T06:41:17.278Z,45.20
2018-11-23T06:43:47.485Z,44.63
2018-11-23T06:46:15.739Z,45.73
2018-11-23T06:48:44.342Z,46.30
2018-11-23T06:51:12.624Z,44.77
2018-11-23T06:53:40.932Z,44.33
2018-11-23T06:56:10.446Z,44.63
2018-11-23T06:58:38.779Z,44.13
2018-11-23T07:01:07.410Z,45.63
2018-11-23T07:03:35.653Z,43.67
2018-11-23T07:06:03.902Z,43.20
2018-11-23T07:08:32.104Z,46.17
2018-11-23T07:11:01.645Z,45.67
2018-11-23T07:13:31.318Z,44.67
2018-11-23T07:15:59.601Z,47.03
2018-11-23T07:18:28.111Z,44.50
2018-11-23T07:20:56.508Z,46.13
2018-11-23T07:23:24.871Z,43.53
2018-11-23T07:25:53.371Z,43.80
2018-11-23T07:28:21.665Z,43.67
2018-11-23T07:30:49.947Z,45.40
2018-11-23T07:33:18.203Z,44.43
2018-11-23T07:35:46.531Z,42.43
2018-11-23T07:38:14.820Z,43.40
2018-11-23T07:40:54.998Z,44.07
2018-11-23T07:43:23.359Z,43.00
2018-11-23T07:45:51.650Z,42.33
2018-11-23T07:48:19.997Z,44.27
2018-11-23T07:50:48.619Z,43.63
2018-11-23T07:53:17.170Z,40.17
2018-11-23T07:55:45.823Z,43.63
2018-11-23T07:58:14.958Z,40.57
2018-11-23T08:00:44.869Z,40.40
2018-11-23T08:03:13.238Z,41.23
2018-11-23T08:05:42.159Z,39.33
2018-11-23T08:08:10.459Z,40.60
2018-11-23T08:10:38.042Z,42.03
2018-11-23T08:13:06.792Z,41.10
2018-11-23T08:15:35.489Z,40.27
2018-11-23T08:18:04.667Z,42.77
2018-11-23T08:20:33.679Z,40.70
2018-11-23T08:23:02.445Z,41.10
2018-11-23T08:25:30.964Z,40.50
2018-11-23T08:27:59.226Z,41.20
2018-11-23T08:30:31.696Z,40.30
2018-11-23T08:33:00.929Z,40.97
2018-11-23T08:35:30.178Z,40.90
2018-11-23T08:37:59.475Z,39.67
2018-11-23T08:40:28.409Z,41.27
2018-11-23T08:42:57.689Z,42.07
2018-11-23T08:45:28.026Z,38.67
2018-11-23T08:47:58.377Z,39.47
2018-11-23T08:50:36.601Z,39.37
2018-11-23T08:53:06.184Z,37.53
2018-11-23T08:55:34.485Z,39.40
2018-11-23T08:58:03.865Z,37.40
2018-11-23T09:00:32.625Z,38.17
2018-11-23T09:03:02.252Z,38.83
2018-11-23T09:05:30.672Z,39.10
2018-11-23T09:07:59.962Z,38.37
2018-11-23T09:10:31.071Z,37.97
2018-11-23T09:13:01.406Z,37.57
2018-11-23T09:15:29.755Z,39.87
2018-11-23T09:17:57.987Z,39.40
2018-11-23T09:20:26.259Z,38.30
2018-11-23T09:22:54.532Z,38.60
2018-11-23T09:25:23.421Z,37.03
2018-11-23T09:27:51.715Z,39.57
2018-11-23T09:30:22.921Z,37.77
2018-11-23T09:32:53.377Z,36.10
2018-11-23T09:35:21.771Z,35.53
2018-11-23T09:37:50.530Z,37.07
2018-11-23T09:40:20.945Z,37.30
2018-11-23T09:42:49.516Z,37.10
2018-11-23T09:45:20.689Z,37.80
2018-11-23T09:47:50.786Z,40.27
2018-11-23T09:50:23.576Z,40.23
2018-11-23T09:52:53.682Z,35.67
2018-11-23T09:55:24.042Z,38.57
2018-11-23T09:57:52.504Z,37.77
2018-11-23T10:00:30.101Z,37.93
2018-11-23T10:02:59.209Z,37.47
2018-11-23T10:05:28.345Z,35.60
2018-11-23T10:07:58.645Z,38.10
2018-11-23T10:10:27.632Z,37.20
2018-11-23T10:12:57.442Z,39.07
2018-11-23T10:15:26.970Z,36.43
2018-11-23T10:17:57.672Z,37.40
2018-11-23T10:23:19.232Z,37.20
2018-11-23T10:25:47.964Z,37.50
2018-11-23T10:28:16.504Z,39.17
2018-11-23T10:30:45.622Z,38.57
2018-11-23T10:33:14.199Z,37.40
2018-11-23T10:35:42.560Z,39.40
2018-11-23T10:38:12.464Z,37.50
2018-11-23T10:40:41.171Z,37.07
2018-11-23T10:43:10.355Z,39.27
2018-11-23T10:45:39.481Z,40.87
2018-11-23T10:48:08.636Z,40.90
2018-11-23T10:50:38.464Z,40.00
2018-11-23T10:53:07.786Z,39.77
2018-11-23T10:55:37.608Z,40.60
2018-11-23T10:58:06.997Z,40.40
2018-11-23T11:00:41.020Z,40.50
2018-11-23T11:03:15.233Z,38.63
2018-11-23T11:05:49.266Z,39.63
2018-11-23T11:08:18.340Z,38.47
2018-11-23T11:10:46.648Z,40.00
2018-11-23T11:13:14.905Z,41.00
2018-11-23T11:15:43.182Z,40.83
2018-11-23T11:18:11.424Z,39.73
2018-11-23T11:20:39.722Z,39.30
2018-11-23T11:23:08.009Z,39.67
2018-11-23T11:25:36.319Z,39.93
2018-11-23T11:28:04.552Z,39.37
2018-11-23T11:30:32.834Z,40.90
2018-11-23T11:33:01.093Z,39.27
2018-11-23T11:35:29.396Z,42.10
2018-11-23T11:37:57.677Z,38.53
2018-11-23T11:40:25.932Z,38.13
2018-11-23T11:42:55.122Z,37.17
2018-11-23T11:45:23.401Z,37.87
2018-11-23T11:47:51.668Z,39.47
2018-11-23T11:50:19.888Z,38.47
2018-11-23T11:52:48.730Z,38.27
2018-11-23T11:55:18.228Z,40.60
2018-11-23T11:57:47.299Z,38.97
2018-11-23T12:00:19.219Z,38.47
2018-11-23T12:02:48.055Z,39.13
2018-11-23T12:05:16.292Z,36.90
2018-11-23T12:07:44.599Z,37.90
2018-11-23T12:10:18.656Z,36.57
2018-11-23T12:12:46.890Z,37.13
2018-11-23T12:15:15.665Z,37.50
2018-11-23T12:17:44.076Z,36.70
2018-11-23T12:20:14.593Z,39.37
2018-11-23T12:22:42.992Z,36.33
2018-11-23T12:25:11.548Z,36.67
2018-11-23T12:27:39.807Z,36.47
2018-11-23T12:30:10.339Z,37.03
2018-11-23T12:32:38.577Z,38.63
2018-11-23T12:35:08.130Z,38.67
2018-11-23T12:37:36.410Z,41.20
2018-11-23T12:40:04.949Z,37.67
2018-11-23T12:42:33.284Z,37.57
2018-11-23T12:45:01.566Z,39.07
2018-11-23T12:47:29.847Z,38.37
2018-11-23T12:49:58.145Z,38.07
2018-11-23T12:52:26.422Z,37.93
2018-11-23T12:54:54.754Z,39.13
2018-11-23T12:57:23.117Z,39.03
2018-11-23T12:59:51.390Z,39.43
2018-11-23T13:02:20.886Z,40.10
2018-11-23T13:04:49.204Z,37.80
2018-11-23T13:07:17.434Z,37.47
2018-11-23T13:09:45.616Z,37.17
2018-11-23T13:15:06.946Z,35.07
2018-11-23T13:17:35.172Z,39.73
2018-11-23T13:20:03.681Z,37.67
2018-11-23T13:22:32.172Z,39.40
2018-11-23T13:25:00.437Z,37.90
2018-11-23T13:27:28.682Z,38.53
2018-11-23T13:29:56.935Z,42.17
2018-11-23T13:32:26.092Z,37.07
2018-11-23T13:34:54.482Z,37.37
2018-11-23T13:37:22.790Z,35.97
2018-11-23T13:39:51.011Z,36.50
2018-11-23T13:42:19.239Z,36.97
2018-11-23T13:44:47.538Z,36.33
2018-11-23T13:47:15.857Z,37.30
2018-11-23T13:49:44.095Z,34.57
2018-11-23T13:52:12.366Z,37.70
2018-11-23T13:54:40.597Z,39.47
2018-11-23T14:00:01.837Z,34.73
2018-11-23T14:02:30.200Z,35.80
2018-11-23T14:04:59.762Z,35.10
2018-11-23T14:10:23.066Z,38.70
2018-11-23T14:12:52.399Z,42.07
2018-11-23T14:15:23.025Z,36.40
2018-11-23T14:17:52.239Z,41.50
2018-11-23T14:20:22.487Z,38.27
2018-11-23T14:22:51.527Z,36.87
2018-11-23T14:25:21.164Z,35.33
2018-11-23T14:27:50.052Z,36.87
2018-11-23T14:30:38.167Z,37.17
2018-11-23T14:33:06.428Z,38.00
2018-11-23T14:35:35.413Z,36.00
2018-11-23T14:38:04.005Z,36.87
2018-11-23T14:40:32.289Z,38.17
2018-11-23T14:43:00.670Z,37.23
2018-11-23T14:45:30.381Z,37.03
2018-11-23T14:48:01.456Z,38.40
2018-11-23T14:50:30.997Z,34.93
2018-11-23T14:52:59.827Z,35.93
2018-11-23T14:55:28.307Z,36.40
2018-11-23T14:57:56.820Z,35.63
2018-11-23T15:00:29.687Z,37.17
2018-11-23T15:02:59.181Z,37.00
2018-11-23T15:05:27.557Z,37.80
2018-11-23T15:07:56.732Z,45.00
2018-11-23T15:10:37.719Z,39.67
2018-11-23T15:13:06.944Z,45.90
2018-11-23T15:15:38.448Z,41.47
2018-11-23T15:18:07.701Z,47.17
2018-11-23T15:20:42.042Z,41.87
2018-11-23T15:23:13.907Z,41.03
2018-11-23T15:25:43.397Z,41.63
2018-11-23T15:28:13.414Z,39.93
2018-11-23T15:33:42.554Z,40.80
2018-11-23T15:36:11.368Z,43.90
2018-11-23T15:38:39.645Z,44.10
2018-11-23T15:41:08.125Z,44.27
2018-11-23T15:43:36.412Z,47.93
2018-11-23T15:46:04.947Z,43.83
2018-11-23T15:48:33.165Z,45.53
2018-11-23T15:51:08.922Z,43.57
2018-11-23T15:53:37.319Z,43.60
2018-11-23T15:56:05.942Z,43.03
2018-11-23T15:58:34.200Z,44.77
2018-11-23T16:01:02.514Z,45.40
2018-11-23T16:03:53.177Z,45.20
2018-11-23T16:06:21.966Z,42.57
2018-11-23T16:08:50.690Z,43.73
2018-11-23T16:11:19.276Z,45.77
2018-11-23T16:13:47.824Z,46.40
2018-11-23T16:16:16.094Z,50.10
2018-11-23T16:18:44.428Z,58.33
2018-11-23T16:21:12.722Z,46.03
2018-11-23T16:23:42.464Z,47.77
2018-11-23T16:26:12.202Z,47.50
2018-11-23T16:28:40.722Z,49.50
2018-11-23T16:31:10.476Z,50.53
2018-11-23T16:33:39.155Z,64.57
2018-11-23T16:36:07.648Z,57.43
2018-11-23T16:38:36.650Z,49.63
2018-11-23T16:41:06.483Z,48.10
2018-11-23T16:43:34.837Z,47.83
2018-11-23T16:46:03.468Z,46.73
2018-11-23T16:51:24.832Z,46.77
2018-11-23T16:53:53.140Z,49.73
2018-11-23T16:56:22.071Z,46.60
2018-11-23T16:58:51.521Z,49.23
2018-11-23T17:01:19.902Z,47.73
2018-11-23T17:03:48.349Z,50.97
2018-11-23T17:06:17.475Z,44.40
2018-11-23T17:08:45.915Z,47.33
2018-11-23T17:11:15.150Z,42.67
2018-11-23T17:13:43.479Z,45.57
2018-11-23T17:16:11.885Z,46.70
2018-11-23T17:18:40.632Z,42.43
2018-11-23T17:21:08.915Z,38.83
2018-11-23T17:23:37.346Z,44.03
2018-11-23T17:26:05.982Z,42.83
2018-11-23T17:28:34.562Z,44.50
2018-11-23T17:33:57.002Z,46.97
2018-11-23T17:36:26.016Z,45.30
2018-11-23T17:38:54.876Z,43.77
2018-11-23T17:41:23.786Z,43.30
2018-11-23T17:43:52.545Z,44.43
2018-11-23T17:46:20.839Z,44.63
2018-11-23T17:48:49.101Z,39.83
2018-11-23T17:51:17.436Z,40.73
2018-11-23T17:53:46.620Z,42.00
2018-11-23T17:56:13.956Z,37.57
2018-11-23T17:58:42.197Z,41.40
2018-11-23T18:01:10.497Z,37.47
2018-11-23T18:03:38.833Z,49.87
2018-11-23T18:06:07.631Z,46.17
2018-11-23T18:08:38.970Z,39.90
2018-11-23T18:11:06.993Z,43.37
2018-11-23T18:13:37.256Z,39.00
2018-11-23T18:16:06.298Z,46.50
2018-11-23T18:18:35.322Z,47.33
2018-11-23T18:21:04.394Z,53.73
2018-11-23T18:23:33.690Z,59.40
2018-11-23T18:26:03.242Z,52.33
2018-11-23T18:28:31.744Z,44.97
2018-11-23T18:31:01.386Z,53.77
2018-11-23T18:33:29.965Z,49.23
2018-11-23T18:35:59.256Z,46.27
2018-11-23T18:38:36.052Z,48.07
2018-11-23T18:41:05.231Z,45.53
2018-11-23T18:43:33.507Z,46.23
2018-11-23T18:46:01.841Z,45.73
2018-11-23T18:48:30.207Z,42.30
2018-11-23T18:50:58.490Z,38.43
2018-11-23T18:53:26.732Z,45.67
2018-11-23T18:55:55.032Z,37.10
2018-11-23T18:58:23.267Z,38.77
2018-11-23T19:00:51.595Z,36.43
2018-11-23T19:03:19.993Z,39.43
2018-11-23T19:05:49.354Z,39.60
2018-11-23T19:08:17.610Z,38.40
2018-11-23T19:10:48.988Z,37.60
2018-11-23T19:13:17.678Z,40.33
2018-11-23T19:15:46.008Z,34.80
2018-11-23T19:18:14.380Z,36.47
2018-11-23T19:20:42.679Z,39.57
2018-11-23T19:23:17.445Z,41.70
2018-11-23T19:25:45.791Z,39.23
2018-11-23T19:28:14.044Z,39.37
2018-11-23T19:33:36.766Z,36.37
2018-11-23T19:36:05.145Z,38.80
2018-11-23T19:38:35.317Z,39.90
2018-11-23T19:41:03.699Z,36.37
2018-11-23T19:43:33.850Z,42.20
2018-11-23T19:46:03.679Z,70.27
2018-11-23T19:48:32.854Z,40.43
2018-11-23T19:51:01.895Z,45.03
2018-11-23T19:53:30.452Z,44.90
2018-11-23T19:55:59.480Z,45.80
2018-11-23T19:58:28.818Z,43.03
2018-11-23T20:00:57.482Z,39.17
2018-11-23T20:03:28.875Z,37.70
2018-11-23T20:05:58.534Z,39.30
2018-11-23T20:08:27.774Z,38.60
2018-11-23T20:10:57.081Z,35.87
2018-11-23T20:13:25.751Z,36.60
2018-11-23T20:15:54.572Z,36.53
2018-11-23T20:18:33.363Z,47.60
2018-11-23T20:21:02.037Z,45.77
2018-11-23T20:23:30.689Z,39.33
2018-11-23T20:25:59.065Z,39.27
2018-11-23T20:31:20.032Z,39.27
2018-11-23T20:33:48.395Z,38.90
2018-11-23T20:36:17.229Z,39.83
2018-11-23T20:38:46.714Z,40.13
2018-11-23T20:41:15.019Z,38.17
2018-11-23T20:43:43.289Z,39.13
2018-11-23T20:46:11.541Z,36.60
2018-11-23T20:48:39.882Z,36.70
2018-11-23T20:51:09.509Z,37.63
2018-11-23T20:53:37.891Z,36.87
2018-11-23T20:56:06.225Z,37.73
2018-11-23T20:58:35.160Z,39.83
2018-11-23T21:03:57.301Z,31.83
2018-11-23T21:06:25.895Z,34.27
2018-11-23T21:08:54.486Z,32.83
2018-11-23T21:11:22.848Z,33.93
2018-11-23T21:13:51.283Z,33.03
2018-11-23T21:16:20.530Z,33.17
2018-11-23T21:18:50.400Z,31.00
2018-11-23T21:21:18.734Z,33.17
2018-11-23T21:23:47.083Z,32.30
2018-11-23T21:26:15.812Z,31.87
2018-11-23T21:28:44.989Z,33.20
2018-11-23T21:31:13.751Z,32.73
2018-11-23T21:33:42.536Z,33.17
2018-11-23T21:36:11.480Z,33.23
2018-11-23T21:38:39.945Z,32.60
2018-11-23T21:41:09.588Z,30.27
2018-11-23T21:43:38.123Z,29.50
2018-11-23T21:46:06.478Z,32.37
2018-11-23T21:48:35.755Z,31.10
2018-11-23T21:51:04.184Z,30.47
2018-11-23T21:53:32.509Z,32.47
2018-11-23T21:56:00.741Z,35.23
2018-11-23T21:58:28.973Z,36.10
2018-11-23T22:00:57.259Z,34.53
2018-11-23T22:03:25.487Z,34.20
2018-11-23T22:05:53.752Z,32.10
2018-11-23T22:08:22.106Z,30.90
2018-11-23T22:10:50.479Z,32.50
2018-11-23T22:13:18.718Z,31.27
2018-11-23T22:15:47.814Z,30.73
2018-11-23T22:18:16.175Z,31.67
2018-11-23T22:20:44.949Z,32.03
2018-11-23T22:23:14.625Z,31.50
2018-11-23T22:25:43.653Z,30.37
2018-11-23T22:28:11.973Z,28.87
2018-11-23T22:30:41.681Z,28.03
2018-11-23T22:33:11.642Z,27.80
2018-11-23T22:35:40.213Z,27.47
2018-11-23T22:38:08.555Z,28.73
2018-11-23T22:40:37.492Z,27.17
2018-11-23T22:43:07.591Z,27.33
2018-11-23T22:45:37.128Z,26.43
2018-11-23T22:48:05.444Z,27.23
2018-11-23T22:50:34.001Z,27.47
2018-11-23T22:53:02.356Z,25.17
2018-11-23T22:55:31.952Z,27.23
2018-11-23T22:58:01.326Z,28.50
2018-11-23T23:00:35.882Z,24.70
2018-11-23T23:03:04.447Z,26.90
2018-11-23T23:05:33.623Z,26.50
2018-11-23T23:08:01.892Z,25.57
2018-11-23T23:10:31.490Z,23.67
2018-11-23T23:12:59.817Z,26.27
2018-11-23T23:15:28.146Z,25.77
2018-11-23T23:17:57.281Z,26.03
2018-11-23T23:20:25.530Z,26.07
2018-11-23T23:22:53.775Z,26.67
2018-11-23T23:25:22.059Z,26.70
2018-11-23T23:27:50.331Z,26.97
2018-11-23T23:30:19.011Z,27.07
2018-11-23T23:32:48.137Z,25.10
2018-11-23T23:35:17.063Z,26.53
2018-11-23T23:37:45.436Z,26.70
2018-11-23T23:40:15.830Z,27.23
2018-11-23T23:42:44.118Z,27.37
2018-11-23T23:45:14.263Z,26.53
2018-11-23T23:47:42.574Z,26.30
2018-11-23T23:50:16.215Z,27.63
2018-11-23T23:52:44.494Z,27.90
2018-11-23T23:55:12.771Z,27.30
2018-11-23T23:57:41.891Z,28.20
